sensor_id;sensor_type;location;lat;lon;timestamp;pressure;altitude;pressure_sealevel;temperature;humidity
33554;BME280;19885;42.208;24.952;2023-05-20T00:00:47;100077.66;;;14.77;100.00
33554;BME280;19885;42.208;24.952;2023-05-20T00:03:13;100084.38;;;15.14;100.00
33554;BME280;19885;42.208;24.952;2023-05-20T00:05:38;100091.47;;;15.03;100.00
33554;BME280;19885;42.208;24.952;2023-05-20T00:08:04;100086.97;;;15.22;100.00
33554;BME280;19885;42.208;24.952;2023-05-20T00:10:31;100091.41;;;15.09;100.00
33554;BME280;19885;42.208;24.952;2023-05-20T00:12:57;100087.00;;;15.14;100.00
33554;BME280;19885;42.208;24.952;2023-05-20T00:15:22;100072.41;;;14.83;100.00
33554;BME280;19885;42.208;24.952;2023-05-20T00:17:47;100062.16;;;14.44;100.00
33554;BME280;19885;42.208;24.952;2023-05-20T00:20:13;100061.31;;;14.26;100.00
33554;BME280;19885;42.208;24.952;2023-05-20T00:22:38;100054.50;;;13.91;100.00
33554;BME280;19885;42.208;24.952;2023-05-20T00:25:03;100044.94;;;13.81;100.00
33554;BME280;19885;42.208;24.952;2023-05-20T00:27:29;100044.09;;;13.71;100.00
33554;BME280;19885;42.208;24.952;2023-05-20T00:29:54;100036.19;;;13.92;100.00
33554;BME280;19885;42.208;24.952;2023-05-20T00:32:19;100030.78;;;14.18;100.00
33554;BME280;19885;42.208;24.952;2023-05-20T00:34:54;100032.69;;;13.92;100.00
33554;BME280;19885;42.208;24.952;2023-05-20T00:37:19;100030.06;;;13.89;100.00
33554;BME280;19885;42.208;24.952;2023-05-20T00:39:44;100037.03;;;13.94;100.00
33554;BME280;19885;42.208;24.952;2023-05-20T00:42:09;100039.69;;;13.82;100.00
33554;BME280;19885;42.208;24.952;2023-05-20T00:44:37;100031.91;;;13.67;100.00
33554;BME280;19885;42.208;24.952;2023-05-20T00:47:04;100036.97;;;14.06;100.00
33554;BME280;19885;42.208;24.952;2023-05-20T00:49:30;100033.41;;;14.21;100.00
33554;BME280;19885;42.208;24.952;2023-05-20T00:51:55;100036.19;;;13.86;100.00
33554;BME280;19885;42.208;24.952;2023-05-20T00:54:20;100033.66;;;13.59;100.00
33554;BME280;19885;42.208;24.952;2023-05-20T00:56:46;100027.31;;;14.13;100.00
33554;BME280;19885;42.208;24.952;2023-05-20T00:59:11;100031.78;;;13.94;100.00
33554;BME280;19885;42.208;24.952;2023-05-20T01:01:37;100025.69;;;13.86;100.00
33554;BME280;19885;42.208;24.952;2023-05-20T01:04:02;100024.88;;;13.72;100.00
33554;BME280;19885;42.208;24.952;2023-05-20T01:06:28;100030.91;;;13.98;100.00
33554;BME280;19885;42.208;24.952;2023-05-20T01:08:53;100021.94;;;14.45;100.00
33554;BME280;19885;42.208;24.952;2023-05-20T01:11:26;100026.34;;;14.37;100.00
33554;BME280;19885;42.208;24.952;2023-05-20T01:13:57;100023.81;;;14.18;100.00
33554;BME280;19885;42.208;24.952;2023-05-20T01:16:25;100020.19;;;14.44;100.00
33554;BME280;19885;42.208;24.952;2023-05-20T01:18:51;100020.09;;;14.57;100.00
33554;BME280;19885;42.208;24.952;2023-05-20T01:21:19;100017.81;;;13.94;100.00
33554;BME280;19885;42.208;24.952;2023-05-20T01:23:45;100003.09;;;13.67;100.00
33554;BME280;19885;42.208;24.952;2023-05-20T01:26:11;100011.66;;;14.05;100.00
33554;BME280;19885;42.208;24.952;2023-05-20T01:28:40;100011.50;;;14.34;100.00
33554;BME280;19885;42.208;24.952;2023-05-20T01:31:10;100022.75;;;14.53;100.00
33554;BME280;19885;42.208;24.952;2023-05-20T01:33:37;100015.72;;;14.56;100.00
33554;BME280;19885;42.208;24.952;2023-05-20T01:36:04;100012.91;;;14.82;100.00
33554;BME280;19885;42.208;24.952;2023-05-20T01:38:30;100011.56;;;14.20;100.00
33554;BME280;19885;42.208;24.952;2023-05-20T01:40:56;100004.78;;;13.83;100.00
33554;BME280;19885;42.208;24.952;2023-05-20T01:43:24;100005.31;;;14.46;100.00
33554;BME280;19885;42.208;24.952;2023-05-20T01:45:50;99952.69;;;14.68;100.00
33554;BME280;19885;42.208;24.952;2023-05-20T01:48:16;99997.84;;;15.05;100.00
33554;BME280;19885;42.208;24.952;2023-05-20T01:50:41;99998.78;;;14.98;100.00
33554;BME280;19885;42.208;24.952;2023-05-20T01:53:09;99997.06;;;14.94;100.00
33554;BME280;19885;42.208;24.952;2023-05-20T01:55:35;99997.06;;;14.94;100.00
33554;BME280;19885;42.208;24.952;2023-05-20T01:58:02;99996.84;;;15.15;100.00
33554;BME280;19885;42.208;24.952;2023-05-20T02:00:28;99998.78;;;14.95;100.00
33554;BME280;19885;42.208;24.952;2023-05-20T02:02:53;99993.13;;;14.42;100.00
33554;BME280;19885;42.208;24.952;2023-05-20T02:05:18;99996.69;;;14.22;100.00
33554;BME280;19885;42.208;24.952;2023-05-20T02:07:46;99996.69;;;14.22;100.00
33554;BME280;19885;42.208;24.952;2023-05-20T02:10:11;99991.91;;;14.82;100.00
33554;BME280;19885;42.208;24.952;2023-05-20T02:12:36;99982.78;;;15.22;100.00
33554;BME280;19885;42.208;24.952;2023-05-20T02:15:02;99986.94;;;15.49;100.00
33554;BME280;19885;42.208;24.952;2023-05-20T02:17:27;99979.03;;;15.50;100.00
33554;BME280;19885;42.208;24.952;2023-05-20T02:19:52;99979.78;;;15.60;100.00
33554;BME280;19885;42.208;24.952;2023-05-20T02:22:20;99982.25;;;15.72;100.00
33554;BME280;19885;42.208;24.952;2023-05-20T02:24:45;99983.47;;;15.47;100.00
33554;BME280;19885;42.208;24.952;2023-05-20T02:27:11;99991.78;;;14.98;100.00
33554;BME280;19885;42.208;24.952;2023-05-20T02:29:39;99994.88;;;15.38;100.00
33554;BME280;19885;42.208;24.952;2023-05-20T02:32:05;99996.44;;;15.60;100.00
33554;BME280;19885;42.208;24.952;2023-05-20T02:34:32;99999.81;;;15.72;99.62
33554;BME280;19885;42.208;24.952;2023-05-20T02:36:58;100002.44;;;15.70;99.07
33554;BME280;19885;42.208;24.952;2023-05-20T02:39:23;100006.84;;;15.69;98.63
33554;BME280;19885;42.208;24.952;2023-05-20T02:41:51;100013.91;;;15.64;100.00
33554;BME280;19885;42.208;24.952;2023-05-20T02:44:16;100009.47;;;15.68;98.65
33554;BME280;19885;42.208;24.952;2023-05-20T02:46:42;100012.09;;;15.69;99.40
33554;BME280;19885;42.208;24.952;2023-05-20T02:49:07;100005.94;;;15.67;100.00
33554;BME280;19885;42.208;24.952;2023-05-20T02:51:32;100005.88;;;15.75;97.78
33554;BME280;19885;42.208;24.952;2023-05-20T02:54:00;100012.09;;;15.68;97.21
33554;BME280;19885;42.208;24.952;2023-05-20T02:56:25;100021.69;;;15.70;97.41
33554;BME280;19885;42.208;24.952;2023-05-20T02:58:53;100017.50;;;15.56;99.00
33554;BME280;19885;42.208;24.952;2023-05-20T03:01:24;100021.97;;;15.46;99.86
33554;BME280;19885;42.208;24.952;2023-05-20T03:03:51;100042.97;;;15.45;97.22
33554;BME280;19885;42.208;24.952;2023-05-20T03:41:22;100049.09;;;15.48;98.11
33554;BME280;19885;42.208;24.952;2023-05-20T03:43:48;100049.06;;;15.51;97.76
33554;BME280;19885;42.208;24.952;2023-05-20T03:46:16;100040.31;;;15.51;97.85
33554;BME280;19885;42.208;24.952;2023-05-20T03:48:41;100042.16;;;15.40;98.17
33554;BME280;19885;42.208;24.952;2023-05-20T03:51:07;100047.44;;;15.34;98.39
33554;BME280;19885;42.208;24.952;2023-05-20T03:53:32;100047.63;;;15.17;100.00
33554;BME280;19885;42.208;24.952;2023-05-20T03:55:57;100043.16;;;15.25;100.00
33554;BME280;19885;42.208;24.952;2023-05-20T03:58:23;100044.78;;;15.38;99.03
33554;BME280;19885;42.208;24.952;2023-05-20T04:00:49;100042.13;;;15.38;98.73
33554;BME280;19885;42.208;24.952;2023-05-20T04:03:14;100041.19;;;15.50;98.37
33554;BME280;19885;42.208;24.952;2023-05-20T04:05:40;100031.47;;;15.56;98.54
33554;BME280;19885;42.208;24.952;2023-05-20T04:08:05;100033.94;;;15.70;97.75
33554;BME280;19885;42.208;24.952;2023-05-20T04:10:31;100045.63;;;15.46;99.30
33554;BME280;19885;42.208;24.952;2023-05-20T04:12:57;100037.69;;;15.49;99.66
33554;BME280;19885;42.208;24.952;2023-05-20T04:15:22;100047.47;;;15.32;100.00
33554;BME280;19885;42.208;24.952;2023-05-20T04:17:49;100050.16;;;15.25;100.00
33554;BME280;19885;42.208;24.952;2023-05-20T04:20:16;100054.59;;;15.15;100.00
33554;BME280;19885;42.208;24.952;2023-05-20T04:22:42;100057.91;;;15.44;100.00
33554;BME280;19885;42.208;24.952;2023-05-20T04:25:07;100044.78;;;15.37;100.00
33554;BME280;19885;42.208;24.952;2023-05-20T04:27:33;100053.44;;;15.49;100.00
33554;BME280;19885;42.208;24.952;2023-05-20T04:32:34;100075.69;;;15.06;100.00
33554;BME280;19885;42.208;24.952;2023-05-20T04:35:00;100086.19;;;15.09;100.00
33554;BME280;19885;42.208;24.952;2023-05-20T04:37:26;100082.25;;;15.58;100.00
33554;BME280;19885;42.208;24.952;2023-05-20T04:39:52;100082.69;;;15.98;100.00
33554;BME280;19885;42.208;24.952;2023-05-20T04:42:17;100079.91;;;16.12;98.84
33554;BME280;19885;42.208;24.952;2023-05-20T04:44:44;100088.44;;;16.29;97.29
33554;BME280;19885;42.208;24.952;2023-05-20T04:47:12;100088.41;;;16.32;96.66
33554;BME280;19885;42.208;24.952;2023-05-20T04:49:38;100084.69;;;16.48;95.63
33554;BME280;19885;42.208;24.952;2023-05-20T04:52:03;100081.97;;;16.57;95.70
33554;BME280;19885;42.208;24.952;2023-05-20T17:54:23;99777.78;;;20.69;76.70
33554;BME280;19885;42.208;24.952;2023-05-20T17:56:48;99783.63;;;20.02;80.66
33554;BME280;19885;42.208;24.952;2023-05-20T17:59:15;99782.78;;;19.73;81.67
33554;BME280;19885;42.208;24.952;2023-05-20T18:01:40;99788.94;;;19.74;82.38
33554;BME280;19885;42.208;24.952;2023-05-20T18:04:05;99788.97;;;19.72;82.80
33554;BME280;19885;42.208;24.952;2023-05-20T18:06:31;99782.22;;;19.33;84.58
33554;BME280;19885;42.208;24.952;2023-05-20T18:08:58;99786.59;;;18.74;87.71
33554;BME280;19885;42.208;24.952;2023-05-20T18:11:25;99796.41;;;18.71;88.09
33554;BME280;19885;42.208;24.952;2023-05-20T18:16:25;99800.50;;;18.13;91.92
33554;BME280;19885;42.208;24.952;2023-05-20T18:18:52;99804.44;;;17.97;93.96
33554;BME280;19885;42.208;24.952;2023-05-20T18:21:17;99804.44;;;17.97;93.22
33554;BME280;19885;42.208;24.952;2023-05-20T18:23:42;99804.19;;;17.71;94.70
33554;BME280;19885;42.208;24.952;2023-05-20T18:26:08;99810.34;;;17.70;93.92
33554;BME280;19885;42.208;24.952;2023-05-20T18:28:33;99821.44;;;17.46;95.11
33554;BME280;19885;42.208;24.952;2023-05-20T18:30:58;99808.75;;;17.63;95.03
33554;BME280;19885;42.208;24.952;2023-05-20T18:33:24;99814.03;;;17.63;95.25
33554;BME280;19885;42.208;24.952;2023-05-20T18:35:49;99814.22;;;17.55;95.50
33554;BME280;19885;42.208;24.952;2023-05-20T18:38:16;99809.22;;;17.42;96.17
33554;BME280;19885;42.208;24.952;2023-05-20T18:40:41;99812.94;;;17.32;96.31
33554;BME280;19885;42.208;24.952;2023-05-20T18:43:06;99812.94;;;17.32;94.15
33554;BME280;19885;42.208;24.952;2023-05-20T18:45:31;99810.25;;;17.35;93.35
33554;BME280;19885;42.208;24.952;2023-05-20T18:47:57;99812.94;;;17.32;94.27
33554;BME280;19885;42.208;24.952;2023-05-20T18:50:24;99816.56;;;17.28;95.01
33554;BME280;19885;42.208;24.952;2023-05-20T18:52:50;99817.47;;;17.25;95.50
33554;BME280;19885;42.208;24.952;2023-05-20T18:55:15;99808.66;;;17.28;95.81
33554;BME280;19885;42.208;24.952;2023-05-20T18:57:40;99812.84;;;17.36;95.55
33554;BME280;19885;42.208;24.952;2023-05-20T19:00:06;99804.31;;;17.25;96.08
33554;BME280;19885;42.208;24.952;2023-05-20T19:02:34;99808.66;;;17.28;96.15
33554;BME280;19885;42.208;24.952;2023-05-20T19:05:00;99808.88;;;17.17;96.66
33554;BME280;19885;42.208;24.952;2023-05-20T19:07:25;99812.25;;;17.24;96.42
33554;BME280;19885;42.208;24.952;2023-05-20T19:09:50;99807.91;;;17.20;95.72
33554;BME280;19885;42.208;24.952;2023-05-20T19:12:16;99806.50;;;17.46;94.40
33554;BME280;19885;42.208;24.952;2023-05-20T19:14:41;99799.72;;;17.35;96.46
33554;BME280;19885;42.208;24.952;2023-05-20T19:17:06;99806.59;;;17.42;95.67
33554;BME280;19885;42.208;24.952;2023-05-20T19:19:31;99803.25;;;17.34;95.60
33554;BME280;19885;42.208;24.952;2023-05-20T19:21:57;99803.66;;;17.14;96.79
33554;BME280;19885;42.208;24.952;2023-05-20T19:24:22;99809.28;;;17.39;95.74
33554;BME280;19885;42.208;24.952;2023-05-20T19:26:47;99804.41;;;17.21;94.91
33554;BME280;19885;42.208;24.952;2023-05-20T19:29:13;99803.38;;;17.28;95.92
33554;BME280;19885;42.208;24.952;2023-05-20T19:31:39;99806.34;;;17.11;96.63
33554;BME280;19885;42.208;24.952;2023-05-20T19:34:07;99801.97;;;17.11;94.83
33554;BME280;19885;42.208;24.952;2023-05-20T19:36:32;99808.59;;;17.29;95.16
33554;BME280;19885;42.208;24.952;2023-05-20T19:38:57;99809.09;;;17.88;92.28
33554;BME280;19885;42.208;24.952;2023-05-20T19:41:22;99805.72;;;18.16;90.52
33554;BME280;19885;42.208;24.952;2023-05-20T19:43:48;99804.16;;;18.43;90.09
33554;BME280;19885;42.208;24.952;2023-05-20T19:46:14;99806.47;;;18.57;90.46
33554;BME280;19885;42.208;24.952;2023-05-20T19:48:41;99801.19;;;17.86;93.36
33554;BME280;19885;42.208;24.952;2023-05-20T19:51:07;99789.19;;;18.08;92.33
33554;BME280;19885;42.208;24.952;2023-05-20T19:53:34;99803.16;;;18.48;90.50
33554;BME280;19885;42.208;24.952;2023-05-20T19:55:59;99796.06;;;18.50;90.04
33554;BME280;19885;42.208;24.952;2023-05-20T19:58:25;99794.06;;;18.59;89.01
33554;BME280;19885;42.208;24.952;2023-05-20T20:00:50;99787.22;;;18.18;91.13
33554;BME280;19885;42.208;24.952;2023-05-20T20:03:15;99788.84;;;18.23;90.55
33554;BME280;19885;42.208;24.952;2023-05-20T20:05:41;99791.66;;;18.51;88.54
33554;BME280;19885;42.208;24.952;2023-05-20T20:08:06;99796.84;;;17.83;91.26
33554;BME280;19885;42.208;24.952;2023-05-20T20:10:33;99798.47;;;18.24;89.61
33554;BME280;19885;42.208;24.952;2023-05-20T20:13:01;99796.34;;;18.38;88.59
33554;BME280;19885;42.208;24.952;2023-05-20T20:15:26;99799.28;;;18.62;87.59
33554;BME280;19885;42.208;24.952;2023-05-20T20:17:53;99789.59;;;18.62;88.98
33554;BME280;19885;42.208;24.952;2023-05-20T20:20:18;99802.22;;;18.51;89.31
33554;BME280;19885;42.208;24.952;2023-05-20T20:22:44;99797.47;;;17.95;92.50
33554;BME280;19885;42.208;24.952;2023-05-20T20:25:09;99796.34;;;17.28;97.15
33554;BME280;19885;42.208;24.952;2023-05-20T20:27:38;99788.13;;;17.02;98.15
33554;BME280;19885;42.208;24.952;2023-05-20T20:30:05;99786.66;;;17.30;96.44
33554;BME280;19885;42.208;24.952;2023-05-20T20:32:31;99793.75;;;17.66;94.27
33554;BME280;19885;42.208;24.952;2023-05-20T20:34:56;99788.59;;;17.21;96.85
33554;BME280;19885;42.208;24.952;2023-05-20T20:37:22;99791.38;;;17.15;97.63
33554;BME280;19885;42.208;24.952;2023-05-20T20:39:47;99784.13;;;17.24;96.19
33554;BME280;19885;42.208;24.952;2023-05-20T20:42:14;99784.63;;;17.41;95.81
33554;BME280;19885;42.208;24.952;2023-05-20T20:44:39;99769.66;;;17.83;92.77
33554;BME280;19885;42.208;24.952;2023-05-20T20:47:06;99774.97;;;17.80;93.15
33554;BME280;19885;42.208;24.952;2023-05-20T20:49:33;99779.50;;;17.35;94.60
33554;BME280;19885;42.208;24.952;2023-05-20T20:51:59;99770.00;;;17.68;93.35
33554;BME280;19885;42.208;24.952;2023-05-20T20:54:25;99773.09;;;17.85;92.72
33554;BME280;19885;42.208;24.952;2023-05-20T20:56:50;99768.09;;;18.08;90.59
33554;BME280;19885;42.208;24.952;2023-05-20T20:59:16;99768.44;;;17.95;91.30
33554;BME280;19885;42.208;24.952;2023-05-20T21:01:42;99764.03;;;17.95;91.66
33554;BME280;19885;42.208;24.952;2023-05-20T21:04:09;99767.66;;;17.56;93.63
33554;BME280;19885;42.208;24.952;2023-05-20T21:06:38;99771.78;;;17.66;94.40
33554;BME280;19885;42.208;24.952;2023-05-20T21:09:04;99755.56;;;17.46;95.68
33554;BME280;19885;42.208;24.952;2023-05-20T21:11:29;99758.75;;;17.22;96.93
33554;BME280;19885;42.208;24.952;2023-05-20T21:13:54;99760.31;;;17.30;96.67
33554;BME280;19885;42.208;24.952;2023-05-20T21:16:20;99748.13;;;17.25;96.85
33554;BME280;19885;42.208;24.952;2023-05-20T21:18:46;99755.44;;;17.52;94.87
33554;BME280;19885;42.208;24.952;2023-05-20T21:21:11;99748.78;;;17.34;96.02
33554;BME280;19885;42.208;24.952;2023-05-20T21:23:39;99749.38;;;17.47;95.62
33554;BME280;19885;42.208;24.952;2023-05-20T21:26:05;99744.25;;;17.41;95.88
33554;BME280;19885;42.208;24.952;2023-05-20T21:28:31;99735.88;;;17.24;97.23
33554;BME280;19885;42.208;24.952;2023-05-20T21:30:56;99727.91;;;17.25;96.29
33554;BME280;19885;42.208;24.952;2023-05-20T21:33:21;99733.41;;;17.16;97.62
33554;BME280;19885;42.208;24.952;2023-05-20T21:35:46;99724.97;;;17.39;95.81
33554;BME280;19885;42.208;24.952;2023-05-20T21:38:12;99725.59;;;17.50;95.74
33554;BME280;19885;42.208;24.952;2023-05-20T21:40:38;99722.59;;;17.28;96.13
33554;BME280;19885;42.208;24.952;2023-05-20T21:43:03;99723.25;;;16.98;98.08
33554;BME280;19885;42.208;24.952;2023-05-20T21:45:28;99713.47;;;17.04;98.85
33554;BME280;19885;42.208;24.952;2023-05-20T21:47:53;99719.94;;;16.90;100.00
33554;BME280;19885;42.208;24.952;2023-05-20T21:50:19;99719.19;;;16.83;100.00
33554;BME280;19885;42.208;24.952;2023-05-20T21:52:44;99713.66;;;17.35;97.97
33554;BME280;19885;42.208;24.952;2023-05-20T21:55:09;99717.84;;;17.04;99.73
33554;BME280;19885;42.208;24.952;2023-05-20T21:57:35;99709.94;;;17.05;99.27
33554;BME280;19885;42.208;24.952;2023-05-20T22:00:00;99703.97;;;17.36;98.24
33554;BME280;19885;42.208;24.952;2023-05-20T22:02:26;99699.72;;;17.29;98.51
33554;BME280;19885;42.208;24.952;2023-05-20T22:04:51;99711.84;;;16.97;100.00
33554;BME280;19885;42.208;24.952;2023-05-20T22:07:16;99706.94;;;17.21;99.10
33554;BME280;19885;42.208;24.952;2023-05-20T22:09:42;99710.34;;;16.87;100.00
33554;BME280;19885;42.208;24.952;2023-05-20T22:12:08;99708.88;;;17.14;100.00
33554;BME280;19885;42.208;24.952;2023-05-20T22:14:35;99703.63;;;16.73;100.00
33554;BME280;19885;42.208;24.952;2023-05-20T22:17:00;99699.91;;;16.83;100.00
33554;BME280;19885;42.208;24.952;2023-05-20T22:19:27;99704.47;;;17.15;100.00
33554;BME280;19885;42.208;24.952;2023-05-20T22:21:52;99699.72;;;16.92;100.00
33554;BME280;19885;42.208;24.952;2023-05-20T22:24:17;99691.28;;;16.76;100.00
33554;BME280;19885;42.208;24.952;2023-05-20T22:26:43;99689.19;;;16.90;100.00
33554;BME280;19885;42.208;24.952;2023-05-20T22:29:08;99693.00;;;16.77;100.00
33554;BME280;19885;42.208;24.952;2023-05-20T22:31:33;99685.94;;;16.79;100.00
33554;BME280;19885;42.208;24.952;2023-05-20T22:33:59;99676.38;;;16.75;100.00
33554;BME280;19885;42.208;24.952;2023-05-20T22:36:24;99683.41;;;16.75;100.00
33554;BME280;19885;42.208;24.952;2023-05-20T22:38:50;99672.56;;;16.90;100.00
33554;BME280;19885;42.208;24.952;2023-05-20T22:41:16;99671.31;;;17.04;100.00
33554;BME280;19885;42.208;24.952;2023-05-20T22:43:41;99668.03;;;16.96;100.00
33554;BME280;19885;42.208;24.952;2023-05-20T22:46:06;99670.22;;;16.76;100.00
33554;BME280;19885;42.208;24.952;2023-05-20T22:48:32;99666.00;;;16.68;100.00
33554;BME280;19885;42.208;24.952;2023-05-20T22:50:57;99666.63;;;16.80;100.00
33554;BME280;19885;42.208;24.952;2023-05-20T22:53:23;99658.63;;;16.85;100.00
33554;BME280;19885;42.208;24.952;2023-05-20T22:55:48;99667.66;;;16.73;100.00
33554;BME280;19885;42.208;24.952;2023-05-20T22:58:13;99660.84;;;17.03;100.00
33554;BME280;19885;42.208;24.952;2023-05-20T23:00:39;99662.19;;;16.82;100.00
33554;BME280;19885;42.208;24.952;2023-05-20T23:03:04;99662.13;;;16.84;100.00
33554;BME280;19885;42.208;24.952;2023-05-20T23:05:30;99656.72;;;16.91;100.00
33554;BME280;19885;42.208;24.952;2023-05-20T23:07:55;99658.69;;;16.82;100.00
33554;BME280;19885;42.208;24.952;2023-05-20T23:10:21;99663.00;;;16.84;100.00
33554;BME280;19885;42.208;24.952;2023-05-20T23:12:46;99652.00;;;17.05;100.00
33554;BME280;19885;42.208;24.952;2023-05-20T23:15:11;99649.69;;;16.90;100.00
33554;BME280;19885;42.208;24.952;2023-05-20T23:17:37;99650.22;;;16.68;100.00
33554;BME280;19885;42.208;24.952;2023-05-20T23:20:03;99638.59;;;16.78;100.00
33554;BME280;19885;42.208;24.952;2023-05-20T23:22:34;99637.88;;;16.70;100.00
33554;BME280;19885;42.208;24.952;2023-05-20T23:25:00;99638.84;;;16.67;100.00
33554;BME280;19885;42.208;24.952;2023-05-20T23:27:26;99644.00;;;16.70;100.00
33554;BME280;19885;42.208;24.952;2023-05-20T23:29:51;99636.66;;;16.86;100.00
33554;BME280;19885;42.208;24.952;2023-05-20T23:32:16;99631.22;;;16.93;100.00
33554;BME280;19885;42.208;24.952;2023-05-20T23:34:42;99631.88;;;17.03;99.66
33554;BME280;19885;42.208;24.952;2023-05-20T23:37:07;99637.22;;;17.00;99.60
33554;BME280;19885;42.208;24.952;2023-05-20T23:39:32;99634.84;;;16.88;100.00
33554;BME280;19885;42.208;24.952;2023-05-20T23:41:58;99612.25;;;17.16;99.49
33554;BME280;19885;42.208;24.952;2023-05-20T23:44:23;99623.91;;;17.41;97.45
33554;BME280;19885;42.208;24.952;2023-05-20T23:46:48;99624.19;;;16.94;100.00
33554;BME280;19885;42.208;24.952;2023-05-20T23:49:15;99612.34;;;16.75;100.00
33554;BME280;19885;42.208;24.952;2023-05-20T23:51:42;99613.16;;;16.78;100.00
33554;BME280;19885;42.208;24.952;2023-05-20T23:54:07;99605.56;;;16.63;100.00
33554;BME280;19885;42.208;24.952;2023-05-20T23:56:32;99600.94;;;16.74;100.00
33554;BME280;19885;42.208;24.952;2023-05-20T23:58:58;99606.13;;;16.77;100.00
